createdAt,value
2023-05-19T00:00:35.155Z,10.66
2023-05-19T00:01:34.998Z,10.65
2023-05-19T00:02:35.161Z,10.66
2023-05-19T00:03:35.035Z,10.63
2023-05-19T00:04:35.268Z,10.63
2023-05-19T00:05:34.994Z,10.65
2023-05-19T00:06:35.067Z,10.65
2023-05-19T00:07:34.938Z,10.66
2023-05-19T00:08:35.045Z,10.68
2023-05-19T00:09:34.908Z,10.68
2023-05-19T00:10:35.056Z,10.71
2023-05-19T00:11:34.896Z,10.70
2023-05-19T00:12:35.083Z,10.70
2023-05-19T00:13:34.862Z,10.70
2023-05-19T00:14:35.034Z,10.70
2023-05-19T00:15:34.882Z,10.70
2023-05-19T00:16:35.090Z,10.66
2023-05-19T00:17:34.876Z,10.65
2023-05-19T00:18:35.034Z,10.66
2023-05-19T00:19:34.802Z,10.65
2023-05-19T00:20:35.968Z,10.65
2023-05-19T00:21:34.815Z,10.63
2023-05-19T00:22:34.941Z,10.63
2023-05-19T00:23:34.781Z,10.62
2023-05-19T00:24:34.958Z,10.62
2023-05-19T00:25:34.753Z,10.65
2023-05-19T00:26:34.921Z,10.65
2023-05-19T00:27:34.727Z,10.66
2023-05-19T00:28:57.935Z,10.65
2023-05-19T00:29:34.704Z,10.68
2023-05-19T00:30:34.828Z,10.68
2023-05-19T00:31:34.796Z,10.68
2023-05-19T00:32:35.883Z,10.66
2023-05-19T00:33:34.663Z,10.68
2023-05-19T00:34:35.854Z,10.63
2023-05-19T00:35:34.656Z,10.68
2023-05-19T00:36:34.799Z,10.68
2023-05-19T00:37:34.611Z,10.68
2023-05-19T00:38:34.753Z,10.65
2023-05-19T00:39:34.598Z,10.65
2023-05-19T00:40:34.838Z,10.63
2023-05-19T00:41:34.609Z,10.63
2023-05-19T00:42:34.858Z,10.63
2023-05-19T00:43:34.601Z,10.65
2023-05-19T00:44:34.694Z,10.65
2023-05-19T00:45:34.560Z,10.65
2023-05-19T00:46:34.768Z,10.63
2023-05-19T00:47:34.551Z,10.65
2023-05-19T00:48:34.755Z,10.63
2023-05-19T00:49:34.490Z,10.63
2023-05-19T00:50:34.821Z,10.62
2023-05-19T00:51:34.468Z,10.59
2023-05-19T00:52:34.539Z,10.59
2023-05-19T00:53:34.453Z,10.58
2023-05-19T00:54:34.556Z,10.56
2023-05-19T00:55:34.450Z,10.56
2023-05-19T00:56:34.477Z,10.55
2023-05-19T00:57:34.425Z,10.53
2023-05-19T00:58:34.497Z,10.52
2023-05-19T00:59:34.410Z,10.53
2023-05-19T01:00:34.709Z,10.55
2023-05-19T01:01:34.475Z,10.56
2023-05-19T01:02:34.474Z,10.56
2023-05-19T01:03:34.482Z,10.56
2023-05-19T01:04:34.440Z,10.55
2023-05-19T01:05:34.352Z,10.55
2023-05-19T01:06:34.442Z,10.52
2023-05-19T01:07:34.305Z,10.53
2023-05-19T01:08:36.482Z,10.53
2023-05-19T01:09:34.276Z,10.52
2023-05-19T01:10:34.434Z,10.51
2023-05-19T01:11:34.275Z,10.52
2023-05-19T01:12:34.385Z,10.55
2023-05-19T01:13:34.239Z,10.53
2023-05-19T01:14:34.293Z,10.53
2023-05-19T01:15:34.231Z,10.52
2023-05-19T01:16:34.346Z,10.53
2023-05-19T01:17:34.326Z,10.51
2023-05-19T01:18:34.327Z,10.52
2023-05-19T01:19:34.161Z,10.47
2023-05-19T01:20:34.346Z,10.47
2023-05-19T01:21:34.161Z,10.51
2023-05-19T01:22:34.283Z,10.46
2023-05-19T01:23:34.132Z,10.44
2023-05-19T01:24:34.259Z,10.42
2023-05-19T01:25:34.114Z,10.42
2023-05-19T01:26:34.178Z,10.39
2023-05-19T01:27:34.103Z,10.42
2023-05-19T01:28:34.244Z,10.42
2023-05-19T01:29:34.074Z,10.43
2023-05-19T01:30:34.442Z,10.43
2023-05-19T01:31:34.068Z,10.40
2023-05-19T01:32:34.118Z,10.37
2023-05-19T01:33:34.053Z,10.37
2023-05-19T01:34:34.131Z,10.39
2023-05-19T01:35:34.037Z,10.39
2023-05-19T01:36:34.141Z,10.37
2023-05-19T01:37:33.998Z,10.39
2023-05-19T01:38:34.070Z,10.39
2023-05-19T01:39:33.978Z,10.39
2023-05-19T01:40:34.320Z,10.36
2023-05-19T01:41:33.968Z,10.36
2023-05-19T01:42:34.080Z,10.36
2023-05-19T01:43:33.944Z,10.34
2023-05-19T01:44:34.002Z,10.36
2023-05-19T01:45:33.983Z,10.36
2023-05-19T01:46:34.131Z,10.37
2023-05-19T01:47:33.919Z,10.39
2023-05-19T01:48:34.106Z,10.40
2023-05-19T01:49:33.877Z,10.40
2023-05-19T01:50:34.170Z,10.40
2023-05-19T01:51:33.853Z,10.39
2023-05-19T01:52:33.963Z,10.37
2023-05-19T01:53:33.847Z,10.37
2023-05-19T01:54:33.967Z,10.37
2023-05-19T01:55:33.795Z,10.34
2023-05-19T01:56:33.907Z,10.33
2023-05-19T01:57:33.810Z,10.33
2023-05-19T01:58:33.894Z,10.34
2023-05-19T01:59:33.773Z,10.34
2023-05-19T02:00:34.164Z,10.33
2023-05-19T02:01:33.768Z,10.33
2023-05-19T02:02:33.879Z,10.32
2023-05-19T02:03:33.722Z,10.33
2023-05-19T02:04:33.885Z,10.32
2023-05-19T02:05:33.709Z,10.33
2023-05-19T02:06:34.957Z,10.34
2023-05-19T02:07:33.699Z,10.32
2023-05-19T02:08:33.800Z,10.32
2023-05-19T02:09:33.651Z,10.32
2023-05-19T02:10:33.989Z,10.33
2023-05-19T02:11:33.630Z,10.34
2023-05-19T02:12:33.784Z,10.33
2023-05-19T02:13:33.650Z,10.30
2023-05-19T02:14:33.749Z,10.28
2023-05-19T02:15:33.621Z,10.28
2023-05-19T02:16:33.758Z,10.32
2023-05-19T02:17:33.630Z,10.32
2023-05-19T02:18:33.784Z,10.30
2023-05-19T02:19:33.557Z,10.28
2023-05-19T02:20:33.881Z,10.26
2023-05-19T02:21:33.536Z,10.24
2023-05-19T02:22:33.661Z,10.24
2023-05-19T02:23:33.516Z,10.24
2023-05-19T02:24:33.730Z,10.24
2023-05-19T02:25:33.522Z,10.21
2023-05-19T02:26:33.589Z,10.22
2023-05-19T02:27:33.479Z,10.21
2023-05-19T02:28:33.739Z,10.21
2023-05-19T02:29:33.487Z,10.21
2023-05-19T02:30:33.739Z,10.21
2023-05-19T02:31:34.385Z,10.19
2023-05-19T02:32:33.617Z,10.18
2023-05-19T02:33:33.432Z,10.17
2023-05-19T02:34:33.544Z,10.15
2023-05-19T02:35:33.384Z,10.15
2023-05-19T02:36:33.546Z,10.17
2023-05-19T02:37:33.363Z,10.17
2023-05-19T02:38:33.494Z,10.15
2023-05-19T02:39:33.365Z,10.14
2023-05-19T02:40:33.731Z,10.14
2023-05-19T02:41:33.329Z,10.15
2023-05-19T02:42:33.495Z,10.15
2023-05-19T02:43:33.315Z,10.12
2023-05-19T02:44:33.420Z,10.12
2023-05-19T02:45:33.307Z,10.14
2023-05-19T02:46:33.432Z,10.12
2023-05-19T02:47:36.111Z,10.12
2023-05-19T02:48:34.446Z,10.14
2023-05-19T02:49:33.257Z,10.10
2023-05-19T02:50:33.639Z,10.12
2023-05-19T02:51:33.241Z,10.10
2023-05-19T02:52:55.380Z,10.09
2023-05-19T02:53:33.607Z,10.07
2023-05-19T02:54:34.395Z,10.06
2023-05-19T02:55:33.199Z,10.06
2023-05-19T02:56:33.325Z,10.04
2023-05-19T02:57:33.159Z,10.01
2023-05-19T02:58:33.359Z,10.00
2023-05-19T02:59:33.165Z,10.00
2023-05-19T03:00:33.535Z,10.01
2023-05-19T03:01:33.167Z,10.00
2023-05-19T03:02:33.302Z,10.00
2023-05-19T03:03:33.152Z,10.00
2023-05-19T03:04:33.128Z,10.01
2023-05-19T03:05:33.300Z,9.99
2023-05-19T03:06:33.064Z,9.99
2023-05-19T03:07:33.272Z,10.00
2023-05-19T03:08:33.047Z,10.00
2023-05-19T03:09:33.248Z,9.99
2023-05-19T03:10:33.141Z,9.99
2023-05-19T03:11:33.215Z,10.01
2023-05-19T03:12:33.003Z,10.00
2023-05-19T03:13:33.130Z,10.00
2023-05-19T03:14:33.004Z,10.00
2023-05-19T03:15:33.034Z,10.00
2023-05-19T03:16:33.016Z,10.00
2023-05-19T03:17:33.064Z,9.97
2023-05-19T03:18:32.966Z,9.99
2023-05-19T03:19:33.067Z,9.97
2023-05-19T03:20:33.074Z,9.97
2023-05-19T03:21:32.952Z,9.99
2023-05-19T03:22:32.890Z,9.99
2023-05-19T03:23:32.879Z,10.00
2023-05-19T03:24:32.904Z,10.00
2023-05-19T03:25:32.974Z,10.00
2023-05-19T03:26:32.847Z,9.99
2023-05-19T03:27:32.890Z,9.97
2023-05-19T03:28:32.843Z,9.94
2023-05-19T03:29:34.914Z,9.94
2023-05-19T03:30:33.012Z,9.94
2023-05-19T03:31:33.867Z,9.94
2023-05-19T03:32:32.939Z,9.91
2023-05-19T03:33:32.847Z,9.93
2023-05-19T03:34:32.882Z,9.91
2023-05-19T03:35:32.869Z,9.91
2023-05-19T03:36:32.744Z,9.91
2023-05-19T03:37:33.849Z,9.91
2023-05-19T03:38:32.786Z,9.89
2023-05-19T03:39:32.813Z,9.91
2023-05-19T03:40:33.066Z,9.93
2023-05-19T03:41:32.790Z,9.94
2023-05-19T03:42:32.696Z,9.96
2023-05-19T03:43:32.853Z,9.96
2023-05-19T03:44:32.696Z,9.97
2023-05-19T03:45:32.773Z,9.97
2023-05-19T03:46:32.680Z,9.99
2023-05-19T03:47:32.791Z,9.99
2023-05-19T03:48:32.771Z,10.00
2023-05-19T03:49:32.690Z,10.01
2023-05-19T03:50:32.880Z,10.01
2023-05-19T03:51:32.609Z,10.01
2023-05-19T03:52:32.698Z,10.00
2023-05-19T03:53:32.574Z,9.99
2023-05-19T03:54:32.745Z,9.94
2023-05-19T03:55:32.824Z,9.91
2023-05-19T03:56:32.778Z,9.93
2023-05-19T03:57:32.543Z,9.94
2023-05-19T03:58:32.604Z,9.89
2023-05-19T03:59:32.531Z,9.88
2023-05-19T04:00:32.936Z,9.89
2023-05-19T04:01:32.482Z,9.88
2023-05-19T04:02:32.664Z,9.88
2023-05-19T04:03:32.498Z,9.88
2023-05-19T04:04:32.677Z,9.86
2023-05-19T04:05:32.442Z,9.86
2023-05-19T04:06:32.518Z,9.88
2023-05-19T04:07:32.426Z,9.88
2023-05-19T04:08:32.530Z,9.88
2023-05-19T04:09:32.426Z,9.88
2023-05-19T04:10:32.711Z,9.88
2023-05-19T04:11:32.381Z,9.89
2023-05-19T04:12:32.471Z,9.89
2023-05-19T04:13:32.361Z,9.89
2023-05-19T04:14:32.494Z,9.89
2023-05-19T04:15:32.410Z,9.93
2023-05-19T04:16:32.489Z,9.94
2023-05-19T04:17:32.327Z,9.96
2023-05-19T04:18:32.402Z,9.94
2023-05-19T04:19:32.339Z,9.96
2023-05-19T04:20:32.491Z,9.93
2023-05-19T04:21:32.277Z,9.96
2023-05-19T04:22:32.339Z,9.93
2023-05-19T04:23:32.262Z,9.94
2023-05-19T04:24:32.315Z,9.94
2023-05-19T04:25:32.257Z,9.97
2023-05-19T04:26:32.346Z,9.99
2023-05-19T04:27:32.211Z,10.00
2023-05-19T04:28:32.252Z,10.01
2023-05-19T04:29:32.191Z,10.01
2023-05-19T04:30:32.504Z,10.01
2023-05-19T04:31:32.185Z,10.03
2023-05-19T04:32:32.303Z,10.03
2023-05-19T04:33:32.153Z,10.07
2023-05-19T04:34:32.186Z,10.09
2023-05-19T04:35:32.136Z,10.09
2023-05-19T04:36:32.213Z,10.12
2023-05-19T04:37:32.099Z,10.14
2023-05-19T04:38:32.224Z,10.10
2023-05-19T04:39:32.085Z,10.14
2023-05-19T04:40:32.485Z,10.14
2023-05-19T04:41:32.053Z,10.14
2023-05-19T04:42:32.179Z,10.15
2023-05-19T04:43:32.055Z,10.14
2023-05-19T04:44:32.096Z,10.15
2023-05-19T04:45:32.020Z,10.18
2023-05-19T04:46:32.066Z,10.18
2023-05-19T04:47:32.001Z,10.18
2023-05-19T04:48:32.069Z,10.17
2023-05-19T04:49:32.009Z,10.18
2023-05-19T04:50:32.360Z,10.19
2023-05-19T04:51:31.954Z,10.22
2023-05-19T04:52:32.076Z,10.25
2023-05-19T04:53:31.931Z,10.25
2023-05-19T04:54:32.110Z,10.32
2023-05-19T04:55:31.934Z,10.33
2023-05-19T04:56:32.219Z,10.36
2023-05-19T04:57:31.893Z,10.39
2023-05-19T04:58:32.019Z,10.39
2023-05-19T04:59:31.898Z,10.42
2023-05-19T05:00:32.305Z,10.44
2023-05-19T05:01:31.894Z,10.46
2023-05-19T05:02:32.136Z,10.46
2023-05-19T05:03:31.967Z,10.44
2023-05-19T05:04:34.021Z,10.47
2023-05-19T05:05:31.819Z,10.51
2023-05-19T05:06:32.898Z,10.55
2023-05-19T05:07:32.640Z,10.56
2023-05-19T05:08:31.972Z,10.60
2023-05-19T05:09:31.778Z,10.65
2023-05-19T05:10:32.132Z,10.68
2023-05-19T05:11:31.749Z,10.70
2023-05-19T05:12:31.907Z,10.70
2023-05-19T05:13:31.720Z,10.70
2023-05-19T05:14:31.919Z,10.68
2023-05-19T05:15:31.713Z,10.68
2023-05-19T05:16:31.857Z,10.70
2023-05-19T05:17:31.689Z,10.66
2023-05-19T05:18:31.840Z,10.65
2023-05-19T05:19:31.755Z,10.59
2023-05-19T05:20:32.012Z,10.62
2023-05-19T05:21:31.633Z,10.63
2023-05-19T05:22:31.761Z,10.65
2023-05-19T05:23:31.617Z,10.65
2023-05-19T05:24:31.801Z,10.66
2023-05-19T05:25:31.853Z,10.70
2023-05-19T05:26:31.835Z,10.70
2023-05-19T05:27:31.580Z,10.71
2023-05-19T05:28:31.738Z,10.73
2023-05-19T05:29:31.554Z,10.74
2023-05-19T05:30:31.829Z,10.76
2023-05-19T05:31:31.543Z,10.77
2023-05-19T05:32:31.813Z,10.77
2023-05-19T05:33:31.548Z,10.78
2023-05-19T05:34:31.665Z,10.80
2023-05-19T05:35:31.599Z,10.78
2023-05-19T05:36:31.589Z,10.78
2023-05-19T05:37:31.476Z,10.80
2023-05-19T05:38:31.577Z,10.78
2023-05-19T05:39:31.439Z,10.78
2023-05-19T05:40:31.527Z,10.80
2023-05-19T05:41:31.417Z,10.83
2023-05-19T05:42:31.538Z,10.86
2023-05-19T05:43:31.436Z,10.84
2023-05-19T05:44:31.515Z,10.89
2023-05-19T05:45:31.565Z,10.91
2023-05-19T05:46:31.493Z,10.91
2023-05-19T05:47:31.451Z,10.89
2023-05-19T05:48:31.439Z,10.91
2023-05-19T05:49:31.385Z,10.89
2023-05-19T05:50:31.451Z,10.86
2023-05-19T05:51:31.328Z,10.89
2023-05-19T05:52:31.351Z,10.88
2023-05-19T05:53:31.314Z,10.86
2023-05-19T05:54:31.421Z,10.86
2023-05-19T05:55:31.623Z,10.88
2023-05-19T05:56:31.393Z,10.91
2023-05-19T05:57:31.270Z,10.94
2023-05-19T05:58:31.287Z,10.96
2023-05-19T05:59:31.234Z,10.98
2023-05-19T06:00:31.669Z,11.01
2023-05-19T06:01:32.185Z,11.03
2023-05-19T06:02:31.405Z,11.02
2023-05-19T06:03:31.264Z,11.06
2023-05-19T06:04:31.253Z,11.06
2023-05-19T06:05:31.225Z,11.09
2023-05-19T06:06:31.294Z,11.11
2023-05-19T06:07:31.199Z,11.16
2023-05-19T06:08:31.279Z,11.19
2023-05-19T06:09:31.146Z,11.19
2023-05-19T06:10:31.619Z,11.21
2023-05-19T06:11:31.124Z,11.27
2023-05-19T06:12:31.263Z,11.27
2023-05-19T06:13:31.106Z,11.31
2023-05-19T06:14:31.231Z,11.32
2023-05-19T06:15:31.269Z,11.32
2023-05-19T06:16:31.148Z,11.34
2023-05-19T06:17:31.114Z,11.34
2023-05-19T06:18:31.196Z,11.32
2023-05-19T06:19:31.085Z,11.34
2023-05-19T06:20:31.466Z,11.36
2023-05-19T06:21:31.015Z,11.39
2023-05-19T06:22:31.101Z,11.41
2023-05-19T06:23:31.008Z,11.44
2023-05-19T06:24:31.107Z,11.49
2023-05-19T06:25:31.136Z,11.50
2023-05-19T06:26:31.102Z,11.49
2023-05-19T06:27:32.624Z,11.49
2023-05-19T06:28:31.151Z,11.49
2023-05-19T06:29:30.954Z,11.50
2023-05-19T06:30:31.189Z,11.54
2023-05-19T06:31:30.975Z,11.61
2023-05-19T06:32:31.105Z,11.68
2023-05-19T06:33:30.894Z,11.72
2023-05-19T06:34:31.093Z,11.75
2023-05-19T06:35:30.905Z,11.82
2023-05-19T06:36:33.023Z,11.87
2023-05-19T06:37:30.853Z,11.96
2023-05-19T06:38:30.915Z,11.96
2023-05-19T06:39:30.824Z,11.99
2023-05-19T06:40:31.202Z,11.99
2023-05-19T06:41:30.814Z,11.99
2023-05-19T06:42:51.925Z,12.01
2023-05-19T06:43:30.812Z,12.02
2023-05-19T06:44:31.851Z,12.08
2023-05-19T06:45:30.798Z,12.12
2023-05-19T06:46:30.935Z,12.13
2023-05-19T06:47:30.795Z,12.16
2023-05-19T06:48:30.848Z,12.16
2023-05-19T06:49:30.711Z,12.19
2023-05-19T06:50:31.104Z,12.19
2023-05-19T06:51:30.713Z,12.21
2023-05-19T06:52:30.849Z,12.23
2023-05-19T06:53:30.707Z,12.23
2023-05-19T06:54:30.913Z,12.21
2023-05-19T06:55:30.674Z,12.20
2023-05-19T06:56:30.820Z,12.15
2023-05-19T06:57:30.645Z,12.11
2023-05-19T06:58:30.756Z,12.09
2023-05-19T06:59:30.612Z,12.11
2023-05-19T07:00:30.804Z,12.11
2023-05-19T07:01:30.691Z,12.11
2023-05-19T07:02:30.954Z,12.12
2023-05-19T07:03:30.630Z,12.13
2023-05-19T07:04:30.834Z,12.15
2023-05-19T07:05:30.562Z,12.16
2023-05-19T07:06:30.724Z,12.20
2023-05-19T07:07:30.524Z,12.21
2023-05-19T07:08:30.707Z,12.27
2023-05-19T07:09:30.530Z,12.29
2023-05-19T07:10:30.983Z,12.31
2023-05-19T07:11:30.519Z,12.38
2023-05-19T07:12:31.634Z,12.42
2023-05-19T07:13:30.462Z,12.45
2023-05-19T07:14:30.676Z,12.52
2023-05-19T07:15:30.458Z,12.59
2023-05-19T07:16:30.629Z,12.69
2023-05-19T07:17:30.457Z,12.77
2023-05-19T07:18:30.467Z,13.09
2023-05-19T07:19:30.511Z,13.33
2023-05-19T07:20:30.858Z,13.47
2023-05-19T07:21:30.397Z,13.56
2023-05-19T07:22:30.399Z,13.56
2023-05-19T07:23:30.380Z,13.59
2023-05-19T07:24:30.418Z,13.59
2023-05-19T07:25:30.495Z,13.54
2023-05-19T07:26:30.467Z,13.49
2023-05-19T07:27:30.312Z,13.43
2023-05-19T07:28:30.475Z,13.29
2023-05-19T07:29:30.388Z,13.22
2023-05-19T07:30:30.584Z,13.18
2023-05-19T07:31:30.343Z,13.12
2023-05-19T07:32:30.433Z,13.07
2023-05-19T07:33:30.246Z,13.04
2023-05-19T07:34:30.278Z,13.04
2023-05-19T07:35:30.346Z,13.04
2023-05-19T07:36:30.355Z,12.99
2023-05-19T07:37:30.209Z,13.00
2023-05-19T07:38:30.549Z,13.00
2023-05-19T07:39:30.195Z,13.02
2023-05-19T07:40:30.522Z,13.02
2023-05-19T07:41:30.224Z,13.03
2023-05-19T07:42:30.473Z,13.00
2023-05-19T07:43:30.166Z,13.03
2023-05-19T07:44:30.351Z,13.04
2023-05-19T07:45:30.148Z,13.03
2023-05-19T07:46:30.336Z,13.03
2023-05-19T07:47:30.125Z,13.02
2023-05-19T07:48:30.258Z,13.00
2023-05-19T07:49:30.066Z,13.00
2023-05-19T07:50:30.368Z,12.99
2023-05-19T07:51:30.087Z,13.03
2023-05-19T07:52:30.200Z,13.06
2023-05-19T07:53:30.045Z,13.09
2023-05-19T07:54:30.201Z,13.14
2023-05-19T07:55:30.016Z,13.14
2023-05-19T07:56:30.360Z,13.09
2023-05-19T07:57:29.990Z,13.12
2023-05-19T07:58:30.018Z,13.11
2023-05-19T07:59:29.967Z,13.14
2023-05-19T08:00:30.040Z,13.12
2023-05-19T08:01:29.979Z,13.14
2023-05-19T08:02:30.104Z,13.15
2023-05-19T08:03:30.033Z,13.17
2023-05-19T08:04:53.120Z,13.18
2023-05-19T08:05:29.947Z,13.15
2023-05-19T08:06:52.028Z,13.15
2023-05-19T08:07:29.883Z,13.15
2023-05-19T08:08:30.914Z,13.18
2023-05-19T08:09:29.880Z,13.20
2023-05-19T08:10:29.934Z,13.21
2023-05-19T08:11:29.856Z,13.27
2023-05-19T08:12:29.915Z,13.30
2023-05-19T08:13:29.817Z,13.36
2023-05-19T08:14:29.926Z,13.40
2023-05-19T08:15:29.807Z,13.46
2023-05-19T08:16:29.919Z,13.44
2023-05-19T08:17:29.823Z,13.38
2023-05-19T08:18:29.855Z,13.37
2023-05-19T08:19:29.856Z,13.37
2023-05-19T08:20:29.866Z,13.38
2023-05-19T08:21:29.747Z,13.44
2023-05-19T08:22:29.830Z,13.51
2023-05-19T08:23:29.740Z,13.58
2023-05-19T08:24:29.798Z,13.63
2023-05-19T08:25:29.697Z,13.62
2023-05-19T08:26:29.806Z,13.61
2023-05-19T08:27:29.680Z,13.61
2023-05-19T08:28:29.768Z,13.56
2023-05-19T08:29:29.656Z,13.49
2023-05-19T08:30:29.731Z,13.38
2023-05-19T08:31:29.676Z,13.30
2023-05-19T08:32:29.787Z,13.18
2023-05-19T08:33:29.645Z,13.09
2023-05-19T08:34:29.699Z,13.07
2023-05-19T08:35:29.598Z,13.02
2023-05-19T08:36:29.685Z,13.00
2023-05-19T08:37:30.702Z,12.96
2023-05-19T08:38:29.724Z,12.95
2023-05-19T08:39:29.553Z,12.92
2023-05-19T08:40:29.629Z,12.92
2023-05-19T08:41:29.566Z,12.92
2023-05-19T08:42:29.684Z,12.92
2023-05-19T08:43:29.548Z,12.93
2023-05-19T08:44:29.641Z,12.96
2023-05-19T08:45:29.508Z,12.97
2023-05-19T08:46:29.626Z,13.02
2023-05-19T08:47:29.591Z,13.03
2023-05-19T08:48:29.560Z,13.00
2023-05-19T08:49:29.469Z,12.99
2023-05-19T08:50:29.594Z,12.96
2023-05-19T08:51:29.423Z,12.99
2023-05-19T08:52:32.601Z,12.97
2023-05-19T08:53:34.077Z,12.99
2023-05-19T08:54:29.417Z,12.97
2023-05-19T08:55:31.725Z,12.99
2023-05-19T08:56:29.387Z,13.03
2023-05-19T08:57:29.476Z,13.03
2023-05-19T08:58:29.358Z,13.03
2023-05-19T08:59:29.470Z,13.02
2023-05-19T09:00:29.335Z,13.00
2023-05-19T09:01:29.606Z,13.00
2023-05-19T09:02:29.385Z,13.04
2023-05-19T09:03:31.451Z,13.06
2023-05-19T09:04:30.334Z,13.07
2023-05-19T09:05:29.394Z,13.11
2023-05-19T09:06:29.270Z,13.09
2023-05-19T09:07:29.381Z,13.11
2023-05-19T09:08:29.246Z,13.11
2023-05-19T09:09:29.398Z,13.09
2023-05-19T09:10:29.370Z,13.06
2023-05-19T09:11:29.308Z,13.02
2023-05-19T09:12:29.193Z,13.02
2023-05-19T09:13:29.334Z,13.00
2023-05-19T09:14:29.213Z,12.99
2023-05-19T09:15:29.330Z,13.02
2023-05-19T09:16:30.229Z,13.02
2023-05-19T09:17:29.285Z,13.03
2023-05-19T09:18:29.156Z,13.04
2023-05-19T09:19:29.366Z,13.04
2023-05-19T09:20:29.122Z,13.06
2023-05-19T09:21:29.279Z,13.07
2023-05-19T09:22:29.107Z,13.06
2023-05-19T09:23:29.199Z,13.03
2023-05-19T09:24:29.114Z,13.02
2023-05-19T09:25:29.204Z,12.99
2023-05-19T09:26:29.044Z,13.00
2023-05-19T09:27:29.216Z,13.00
2023-05-19T09:28:29.035Z,13.04
2023-05-19T09:29:29.174Z,13.06
2023-05-19T09:30:29.008Z,13.12
2023-05-19T09:31:29.188Z,13.14
2023-05-19T09:32:29.063Z,13.18
2023-05-19T09:33:29.165Z,13.18
2023-05-19T09:34:29.020Z,13.24
2023-05-19T09:35:29.071Z,13.27
2023-05-19T09:36:28.952Z,13.32
2023-05-19T09:37:29.084Z,13.37
2023-05-19T09:38:28.916Z,13.40
2023-05-19T09:39:30.076Z,13.37
2023-05-19T09:40:28.904Z,13.32
2023-05-19T09:41:29.027Z,13.27
2023-05-19T09:42:28.885Z,13.24
2023-05-19T09:43:52.087Z,13.22
2023-05-19T09:44:28.928Z,13.21
2023-05-19T09:45:50.997Z,13.22
2023-05-19T09:46:28.933Z,13.24
2023-05-19T09:47:28.963Z,13.25
2023-05-19T09:48:28.812Z,13.21
2023-05-19T09:49:30.951Z,13.18
2023-05-19T09:50:28.803Z,13.17
2023-05-19T09:51:29.901Z,13.21
2023-05-19T09:52:28.797Z,13.22
2023-05-19T09:53:28.887Z,13.22
2023-05-19T09:54:28.746Z,13.24
2023-05-19T09:55:28.950Z,13.25
2023-05-19T09:56:28.736Z,13.25
2023-05-19T09:57:28.963Z,13.24
2023-05-19T09:58:28.711Z,13.22
2023-05-19T09:59:32.058Z,13.24
2023-05-19T10:00:28.687Z,13.25
2023-05-19T10:01:28.881Z,13.29
2023-05-19T10:02:28.694Z,13.36
2023-05-19T10:03:28.861Z,13.38
2023-05-19T10:04:28.690Z,13.41
2023-05-19T10:05:28.799Z,13.46
2023-05-19T10:06:28.621Z,13.51
2023-05-19T10:07:28.794Z,13.52
2023-05-19T10:08:28.622Z,13.47
2023-05-19T10:09:28.835Z,13.47
2023-05-19T10:10:28.665Z,13.47
2023-05-19T10:11:28.732Z,13.43
2023-05-19T10:12:28.553Z,13.36
2023-05-19T10:13:28.718Z,13.30
2023-05-19T10:14:28.540Z,13.24
2023-05-19T10:15:28.676Z,13.20
2023-05-19T10:16:28.543Z,13.18
2023-05-19T10:17:28.671Z,13.17
2023-05-19T10:18:28.486Z,13.20
2023-05-19T10:19:28.914Z,13.20
2023-05-19T10:20:28.511Z,13.20
2023-05-19T10:21:49.610Z,13.21
2023-05-19T10:22:28.466Z,13.24
2023-05-19T10:23:30.670Z,13.29
2023-05-19T10:24:28.427Z,13.29
2023-05-19T10:25:28.689Z,13.27
2023-05-19T10:26:28.402Z,13.33
2023-05-19T10:27:28.435Z,13.41
2023-05-19T10:28:28.420Z,13.46
2023-05-19T10:29:28.430Z,13.47
2023-05-19T10:30:28.392Z,13.54
2023-05-19T10:31:28.463Z,13.61
2023-05-19T10:32:28.482Z,13.65
2023-05-19T10:33:28.360Z,13.70
2023-05-19T10:34:28.321Z,13.71
2023-05-19T10:35:28.427Z,13.76
2023-05-19T10:36:28.305Z,13.77
2023-05-19T10:37:28.413Z,13.79
2023-05-19T10:38:28.271Z,13.81
2023-05-19T10:39:28.294Z,13.87
2023-05-19T10:40:28.278Z,13.91
2023-05-19T10:41:28.302Z,13.94
2023-05-19T10:42:28.232Z,13.96
2023-05-19T10:43:28.328Z,13.92
2023-05-19T10:44:28.236Z,13.89
2023-05-19T10:45:28.287Z,13.84
2023-05-19T10:46:28.243Z,13.80
2023-05-19T10:47:28.385Z,13.76
2023-05-19T10:48:28.180Z,13.71
2023-05-19T10:49:28.310Z,13.63
2023-05-19T10:50:28.176Z,13.58
2023-05-19T10:51:28.294Z,13.58
2023-05-19T10:52:28.166Z,13.58
2023-05-19T10:53:28.143Z,13.58
2023-05-19T10:54:28.223Z,13.54
2023-05-19T10:55:28.116Z,13.59
2023-05-19T10:56:28.230Z,13.61
2023-05-19T10:57:28.119Z,13.63
2023-05-19T10:58:28.184Z,13.63
2023-05-19T10:59:29.652Z,13.61
2023-05-19T11:00:28.204Z,13.54
2023-05-19T11:01:28.070Z,13.54
2023-05-19T11:02:28.193Z,13.56
2023-05-19T11:03:28.070Z,13.63
2023-05-19T11:04:28.068Z,13.73
2023-05-19T11:05:28.031Z,13.80
2023-05-19T11:06:28.074Z,13.87
2023-05-19T11:07:27.980Z,13.92
2023-05-19T11:08:28.069Z,13.95
2023-05-19T11:09:38.003Z,13.99
2023-05-19T11:10:27.956Z,14.02
2023-05-19T11:11:29.021Z,13.99
2023-05-19T11:12:27.924Z,14.01
2023-05-19T11:13:28.506Z,14.02
2023-05-19T11:14:27.934Z,14.01
2023-05-19T11:15:28.034Z,14.01
2023-05-19T11:16:27.888Z,14.02
2023-05-19T11:17:28.002Z,14.07
2023-05-19T11:18:27.897Z,14.12
2023-05-19T11:19:28.130Z,14.13
2023-05-19T11:20:27.872Z,14.14
2023-05-19T11:21:28.954Z,14.19
2023-05-19T11:22:27.828Z,14.24
2023-05-19T11:23:27.891Z,14.27
2023-05-19T11:24:27.811Z,14.27
2023-05-19T11:25:27.905Z,14.25
2023-05-19T11:26:27.781Z,14.25
2023-05-19T11:27:27.930Z,14.21
2023-05-19T11:28:27.768Z,14.19
2023-05-19T11:29:27.868Z,14.13
2023-05-19T11:30:27.761Z,14.06
2023-05-19T11:31:27.909Z,13.98
2023-05-19T11:32:27.793Z,13.89
2023-05-19T11:33:28.017Z,13.79
2023-05-19T11:34:27.703Z,13.74
2023-05-19T11:35:27.795Z,13.70
2023-05-19T11:36:27.675Z,13.63
2023-05-19T11:37:27.732Z,13.59
2023-05-19T11:38:27.660Z,13.58
2023-05-19T11:39:27.768Z,13.61
2023-05-19T11:40:27.681Z,13.62
2023-05-19T11:41:27.723Z,13.65
2023-05-19T11:42:27.615Z,13.69
2023-05-19T11:43:27.774Z,13.70
2023-05-19T11:44:27.646Z,13.73
2023-05-19T11:45:27.709Z,13.71
2023-05-19T11:46:27.600Z,13.70
2023-05-19T11:47:27.879Z,13.65
2023-05-19T11:48:27.577Z,13.61
2023-05-19T11:49:27.701Z,13.56
2023-05-19T11:50:27.550Z,13.47
2023-05-19T11:51:27.689Z,13.46
2023-05-19T11:52:27.527Z,13.46
2023-05-19T11:53:27.776Z,13.47
2023-05-19T11:54:27.554Z,13.49
2023-05-19T11:55:27.805Z,13.52
2023-05-19T11:56:27.713Z,13.54
2023-05-19T11:57:27.647Z,13.55
2023-05-19T11:58:27.467Z,13.58
2023-05-19T11:59:29.598Z,13.59
2023-05-19T12:00:27.460Z,13.61
2023-05-19T12:01:29.505Z,13.65
2023-05-19T12:02:27.500Z,13.67
2023-05-19T12:03:28.709Z,13.71
2023-05-19T12:04:27.407Z,13.76
2023-05-19T12:05:27.552Z,13.81
2023-05-19T12:06:27.394Z,13.83
2023-05-19T12:07:27.416Z,13.89
2023-05-19T12:08:27.336Z,13.89
2023-05-19T12:09:28.445Z,13.87
2023-05-19T12:10:27.339Z,13.87
2023-05-19T12:11:27.341Z,13.83
2023-05-19T12:12:27.299Z,13.80
2023-05-19T12:13:27.439Z,13.77
2023-05-19T12:14:27.276Z,13.71
2023-05-19T12:15:27.392Z,13.67
2023-05-19T12:16:27.297Z,13.63
2023-05-19T12:17:27.405Z,13.59
2023-05-19T12:18:27.229Z,13.59
2023-05-19T12:19:27.306Z,13.58
2023-05-19T12:20:27.234Z,13.55
2023-05-19T12:21:33.708Z,13.47
2023-05-19T12:22:27.195Z,13.46
2023-05-19T12:23:27.325Z,13.46
2023-05-19T12:24:27.170Z,13.46
2023-05-19T12:25:27.365Z,13.47
2023-05-19T12:26:27.163Z,13.46
2023-05-19T12:27:27.473Z,13.44
2023-05-19T12:28:27.129Z,13.43
2023-05-19T12:29:27.250Z,13.40
2023-05-19T12:30:27.128Z,13.38
2023-05-19T12:31:27.326Z,13.40
2023-05-19T12:32:27.140Z,13.40
2023-05-19T12:33:27.283Z,13.40
2023-05-19T12:34:27.062Z,13.40
2023-05-19T12:35:27.278Z,13.43
2023-05-19T12:36:27.052Z,13.43
2023-05-19T12:37:27.208Z,13.47
2023-05-19T12:38:27.032Z,13.49
2023-05-19T12:39:27.281Z,13.51
2023-05-19T12:40:27.003Z,13.55
2023-05-19T12:41:27.183Z,13.59
2023-05-19T12:42:26.977Z,13.61
2023-05-19T12:44:43.261Z,13.59
2023-05-19T12:45:44.254Z,13.58
2023-05-19T12:46:44.289Z,13.55
2023-05-19T12:47:44.177Z,13.55
2023-05-19T12:48:44.246Z,13.55
2023-05-19T12:49:44.138Z,13.58
2023-05-19T12:50:44.335Z,13.58
2023-05-19T12:51:44.108Z,13.59
2023-05-19T12:52:44.148Z,13.63
2023-05-19T12:53:44.128Z,13.65
2023-05-19T12:54:46.266Z,13.62
2023-05-19T12:55:44.085Z,13.62